Impacts METAR Board INFO
IDs:

KLAS - Las Vegas/McCarran I, NV, US

Updated at: 1811 UTC 23 Jan 2018
Potential Impact None Slight Moderate High
Time23/06Z 23/07Z 23/08Z 23/09Z 23/10Z 23/11Z 23/12Z 23/13Z 23/14Z 23/15Z 23/16Z 23/17Z 23/18Z
VIS10 10 10 10 10 10 10 10 10 10 10 10 10
CIG250 250 -- -- -- -- -- -- -- -- -- -- --
CoverBKNBKNSCTSCTFEWFEWFEWFEWFEWCLRCLRCLRCLR
FltCatVFRVFRVFRVFRVFRVFRVFRVFRVFRVFRVFRVFRVFR
WX--------------------------
WDir020021026002402000210260000
WSpd0 4 4 5 0 3 3 0 5 3 0 0 0
WGst-- -- -- -- -- -- -- -- -- -- -- -- --
Raw hourly METARs
KLAS 230556Z 00000KT 10SM BKN250 08/M03 A3025 RMK AO2 SLP245 T00781028 10122 20078 50006
KLAS 230656Z 20004KT 10SM BKN250 07/M03 A3026 RMK AO2 SLP248 T00671028
KLAS 230756Z 21004KT 10SM SCT250 06/M03 A3025 RMK AO2 SLP245 T00611028 401220022
KLAS 230856Z 26005KT 10SM SCT250 06/M03 A3026 RMK AO2 SLP248 T00561028 53002
KLAS 230956Z 00000KT 10SM FEW250 04/M03 A3026 RMK AO2 SLP250 T00441028
KLAS 231056Z 24003KT 10SM FEW250 04/M03 A3026 RMK AO2 SLP249 T00391028
KLAS 231156Z 20003KT 10SM FEW250 04/M03 A3026 RMK AO2 SLP250 T00391028 10078 20039 51001
KLAS 231256Z 00000KT 10SM FEW250 04/M03 A3026 RMK AO2 SLP249 T00441033
KLAS 231356Z 21005KT 10SM FEW250 04/M03 A3027 RMK AO2 SLP254 T00391033
KLAS 231456Z 26003KT 10SM CLR 04/M03 A3029 RMK AO2 SLP261 T00391033 53009
KLAS 231556Z 00000KT 10SM CLR 06/M03 A3031 RMK AO2 SLP266 T00611028
KLAS 231656Z 00000KT 10SM CLR 08/M04 A3033 RMK AO2 SLP272 T00831039
KLAS 231756Z 00000KT 10SM CLR 10/M04 A3033 RMK AO2 SLP273 T01001039 10100 20039 51014